createdAt,value
2023-04-09T00:03:56.736Z,2.10
2023-04-09T00:09:18.822Z,2.22
2023-04-09T00:14:40.781Z,2.40
2023-04-09T00:20:02.837Z,2.38
2023-04-09T00:25:24.894Z,2.67
2023-04-09T00:30:46.838Z,2.50
2023-04-09T00:36:08.814Z,2.90
2023-04-09T00:41:30.731Z,3.00
2023-04-09T00:46:54.620Z,2.65
2023-04-09T00:52:16.613Z,2.60
2023-04-09T00:57:38.476Z,2.17
2023-04-09T01:03:01.223Z,2.30
2023-04-09T01:09:12.012Z,1.90
2023-04-09T01:14:57.232Z,2.60
2023-04-09T01:20:35.749Z,2.00
2023-04-09T01:26:16.323Z,2.60
2023-04-09T01:31:39.901Z,2.33
2023-04-09T01:37:04.257Z,2.90
2023-04-09T01:42:26.636Z,3.10
2023-04-09T01:47:48.559Z,3.40
2023-04-09T01:53:11.052Z,3.00
2023-04-09T01:58:34.494Z,3.47
2023-04-09T02:04:04.376Z,3.30
2023-04-09T02:09:29.852Z,3.83
2023-04-09T02:14:52.754Z,3.47
2023-04-09T02:20:20.540Z,4.25
2023-04-09T02:25:42.606Z,5.90
2023-04-09T02:31:04.618Z,4.57
2023-04-09T02:36:28.437Z,4.32
2023-04-09T02:41:50.496Z,3.50
2023-04-09T02:47:12.600Z,4.28
2023-04-09T02:52:34.429Z,3.85
2023-04-09T02:57:56.427Z,4.45
2023-04-09T03:03:18.427Z,5.20
2023-04-09T03:08:40.350Z,4.57
2023-04-09T03:14:02.225Z,4.80
2023-04-09T03:19:24.499Z,4.55
2023-04-09T03:24:46.372Z,5.05
2023-04-09T03:30:08.722Z,4.97
2023-04-09T03:35:30.674Z,5.32
2023-04-09T03:40:52.605Z,5.25
2023-04-09T03:46:15.929Z,5.18
2023-04-09T03:51:37.879Z,4.97
2023-04-09T03:56:59.706Z,5.15
2023-04-09T04:02:21.901Z,5.03
2023-04-09T04:07:44.233Z,4.80
2023-04-09T04:13:09.425Z,5.20
2023-04-09T04:18:31.278Z,5.25
2023-04-09T04:23:53.201Z,4.65
2023-04-09T04:29:15.045Z,5.57
2023-04-09T04:34:36.857Z,4.70
2023-04-09T04:39:58.762Z,4.60
2023-04-09T04:45:20.915Z,4.32
2023-04-09T04:50:42.778Z,4.80
2023-04-09T04:56:04.914Z,4.57
2023-04-09T05:01:26.817Z,4.47
2023-04-09T05:06:48.828Z,4.60
2023-04-09T05:12:10.917Z,4.93
2023-04-09T05:17:32.779Z,4.88
2023-04-09T05:22:54.586Z,5.50
2023-04-09T05:28:17.165Z,4.70
2023-04-09T05:33:42.875Z,4.78
2023-04-09T05:44:26.707Z,4.95
2023-04-09T05:49:48.800Z,4.30
2023-04-09T05:55:10.829Z,3.88
2023-04-09T06:00:32.642Z,4.05
2023-04-09T06:05:54.464Z,3.92
2023-04-09T06:11:16.983Z,3.70
2023-04-09T06:16:38.889Z,3.70
2023-04-09T06:22:00.690Z,5.90
2023-04-09T06:27:23.072Z,8.35
2023-04-09T06:32:54.273Z,8.30
2023-04-09T06:38:19.486Z,8.43
2023-04-09T06:43:41.422Z,8.15
2023-04-09T06:49:03.420Z,8.65
2023-04-09T06:54:25.571Z,8.15
2023-04-09T06:59:47.390Z,7.70
2023-04-09T07:05:09.868Z,7.35
2023-04-09T07:10:31.747Z,8.95
2023-04-09T07:15:53.652Z,9.23
2023-04-09T07:21:15.569Z,9.00
2023-04-09T07:26:37.520Z,8.13
2023-04-09T07:32:01.469Z,8.32
2023-04-09T07:37:23.620Z,9.10
2023-04-09T07:42:45.471Z,8.98
2023-04-09T07:48:09.580Z,8.98
2023-04-09T07:53:31.619Z,8.98
2023-04-09T07:58:53.687Z,8.85
2023-04-09T08:04:16.106Z,8.48
2023-04-09T08:09:38.485Z,8.18
2023-04-09T08:15:00.650Z,7.68
2023-04-09T08:20:22.599Z,7.45
2023-04-09T08:25:45.037Z,8.10
2023-04-09T08:31:06.919Z,7.25
2023-04-09T08:36:29.202Z,6.93
2023-04-09T08:41:52.863Z,7.10
2023-04-09T08:47:15.179Z,7.03
2023-04-09T08:52:37.660Z,6.90
2023-04-09T08:57:59.631Z,9.18
2023-04-09T09:03:21.654Z,19.48
2023-04-09T09:08:43.669Z,21.55
2023-04-09T09:14:10.514Z,22.30
2023-04-09T09:19:36.769Z,21.50
2023-04-09T09:24:59.268Z,21.70
2023-04-09T09:30:26.961Z,18.67
2023-04-09T09:35:54.674Z,18.23
2023-04-09T09:41:18.762Z,16.48
2023-04-09T09:46:42.778Z,15.35
2023-04-09T09:52:10.160Z,14.95
2023-04-09T09:57:34.773Z,14.20
2023-04-09T10:03:08.733Z,13.30
2023-04-09T10:08:34.376Z,12.95
2023-04-09T10:19:22.811Z,13.75
2023-04-09T10:24:46.027Z,12.40
2023-04-09T10:30:10.929Z,12.45
2023-04-09T10:35:32.911Z,14.77
2023-04-09T10:40:55.057Z,14.15
2023-04-09T10:46:30.995Z,13.60
2023-04-09T10:52:14.214Z,12.88
2023-04-09T10:57:36.138Z,12.90
2023-04-09T11:03:04.925Z,12.18
2023-04-09T11:08:31.840Z,12.18
2023-04-09T11:13:59.432Z,24.50
2023-04-09T11:19:21.683Z,13.70
2023-04-09T11:24:44.661Z,12.02
2023-04-09T11:30:07.327Z,11.40
2023-04-09T11:35:29.766Z,12.07
2023-04-09T11:40:58.016Z,11.05
2023-04-09T11:46:21.774Z,11.52
2023-04-09T11:51:43.902Z,10.80
2023-04-09T11:57:09.197Z,10.23
2023-04-09T12:02:34.954Z,11.15
2023-04-09T12:08:08.350Z,11.25
2023-04-09T12:13:33.934Z,11.02
2023-04-09T12:24:19.700Z,10.15
2023-04-09T12:29:41.905Z,9.60
2023-04-09T12:35:04.621Z,9.57
2023-04-09T12:40:27.152Z,9.85
2023-04-09T12:45:49.127Z,9.80
2023-04-09T12:51:11.744Z,9.10
2023-04-09T12:56:33.576Z,8.25
2023-04-09T13:01:55.591Z,8.80
2023-04-09T13:07:19.459Z,9.27
2023-04-09T13:12:41.374Z,8.65
2023-04-09T13:18:03.737Z,8.70
2023-04-09T13:23:25.885Z,8.27
2023-04-09T13:28:47.760Z,8.60
2023-04-09T13:34:09.622Z,8.13
2023-04-09T13:39:31.528Z,8.38
2023-04-09T13:44:53.978Z,7.45
2023-04-09T13:50:15.984Z,7.53
2023-04-09T13:55:39.800Z,6.85
2023-04-09T14:01:02.934Z,6.68
2023-04-09T14:06:25.081Z,5.97
2023-04-09T14:11:47.042Z,5.80
2023-04-09T14:17:08.889Z,5.63
2023-04-09T14:22:31.506Z,4.85
2023-04-09T14:27:53.318Z,5.60
2023-04-09T14:33:15.646Z,5.30
2023-04-09T14:38:37.612Z,4.75
2023-04-09T14:43:59.450Z,4.55
2023-04-09T14:49:21.787Z,4.55
2023-04-09T14:54:43.694Z,4.30
2023-04-09T15:00:08.187Z,4.80
2023-04-09T15:05:30.114Z,4.55
2023-04-09T15:10:51.944Z,3.83
2023-04-09T15:16:33.634Z,4.20
2023-04-09T15:21:56.607Z,3.50
2023-04-09T15:27:18.742Z,3.65
2023-04-09T15:32:40.657Z,3.17
2023-04-09T15:38:02.533Z,3.42
2023-04-09T15:43:24.369Z,3.55
2023-04-09T15:48:46.487Z,3.10
2023-04-09T15:54:08.396Z,3.45
2023-04-09T15:59:30.277Z,3.10
2023-04-09T16:04:52.083Z,3.67
2023-04-09T16:10:14.954Z,3.22
2023-04-09T16:15:36.805Z,3.35
2023-04-09T16:20:58.741Z,3.50
2023-04-09T16:26:20.980Z,3.10
2023-04-09T16:31:42.958Z,2.90
2023-04-09T16:37:04.901Z,3.42
2023-04-09T16:42:27.622Z,2.97
2023-04-09T16:47:51.955Z,3.58
2023-04-09T16:53:15.295Z,3.35
2023-04-09T16:58:38.035Z,2.92
2023-04-09T17:04:02.713Z,2.60
2023-04-09T17:09:25.459Z,3.00
2023-04-09T17:14:47.453Z,3.40
2023-04-09T17:20:09.853Z,3.33
2023-04-09T17:25:31.778Z,3.30
2023-04-09T17:30:53.671Z,3.67
2023-04-09T17:36:18.786Z,3.33
2023-04-09T17:41:40.825Z,3.85
2023-04-09T17:47:03.157Z,3.33
2023-04-09T17:52:25.175Z,3.20
2023-04-09T17:57:47.042Z,3.17
2023-04-09T18:03:09.809Z,2.97
2023-04-09T18:08:31.903Z,2.85
2023-04-09T18:13:53.784Z,2.95
2023-04-09T18:19:15.843Z,3.33
2023-04-09T18:24:37.673Z,4.32
2023-04-09T18:29:59.716Z,3.22
2023-04-09T18:35:21.639Z,3.55
2023-04-09T18:40:44.712Z,3.10
2023-04-09T18:46:07.088Z,3.45
2023-04-09T18:51:29.013Z,3.35
2023-04-09T18:56:50.917Z,2.40
2023-04-09T19:02:13.176Z,2.67
2023-04-09T19:07:35.192Z,2.45
2023-04-09T19:12:57.011Z,2.55
2023-04-09T19:18:19.022Z,2.95
2023-04-09T19:23:41.511Z,2.78
2023-04-09T19:29:05.530Z,3.10
2023-04-09T19:34:27.398Z,3.47
2023-04-09T19:39:49.427Z,2.65
2023-04-09T19:45:11.907Z,2.42
2023-04-09T19:50:38.162Z,2.75
2023-04-09T19:56:00.009Z,2.55
2023-04-09T20:01:22.203Z,2.15
2023-04-09T20:06:44.999Z,2.10
2023-04-09T20:12:08.983Z,1.60
2023-04-09T20:17:30.880Z,1.52
2023-04-09T20:22:56.639Z,2.40
2023-04-09T20:28:18.663Z,1.55
2023-04-09T20:33:40.788Z,1.63
2023-04-09T20:39:02.798Z,1.65
2023-04-09T20:44:25.183Z,1.30
2023-04-09T20:49:47.636Z,1.27
2023-04-09T20:55:09.683Z,1.10
2023-04-09T21:00:31.503Z,1.67
2023-04-09T21:05:53.389Z,1.65
2023-04-09T21:11:15.701Z,1.40
2023-04-09T21:16:37.761Z,1.42
2023-04-09T21:21:59.648Z,1.50
2023-04-09T21:27:21.569Z,1.60
2023-04-09T21:32:43.441Z,1.48
2023-04-09T21:38:05.498Z,1.40
2023-04-09T21:43:30.614Z,1.48
2023-04-09T21:48:53.020Z,1.98
2023-04-09T21:54:15.097Z,1.55
2023-04-09T21:59:37.558Z,1.30
2023-04-09T22:05:00.413Z,1.52
2023-04-09T22:10:22.983Z,1.95
2023-04-09T22:15:44.802Z,1.52
2023-04-09T22:21:07.118Z,1.80
2023-04-09T22:26:29.145Z,1.52
2023-04-09T22:31:50.997Z,1.50
2023-04-09T22:37:13.828Z,1.73
2023-04-09T22:42:35.616Z,1.20
2023-04-09T22:47:57.976Z,1.30
2023-04-09T22:53:20.005Z,1.27
2023-04-09T22:58:42.040Z,1.10
2023-04-09T23:04:04.119Z,1.60
2023-04-09T23:09:26.012Z,1.20
2023-04-09T23:14:49.387Z,1.75
2023-04-09T23:20:13.925Z,1.30
2023-04-09T23:25:36.086Z,1.35
2023-04-09T23:30:57.917Z,1.30
2023-04-09T23:36:19.751Z,1.65
2023-04-09T23:41:41.779Z,1.30
2023-04-09T23:47:06.069Z,1.50
2023-04-09T23:52:28.032Z,1.40
2023-04-09T23:57:49.915Z,1.60
